Time;durP1;ratioP1;P1;durP2;ratioP2;P2;SDS_P1;SDS_P2;PMS_P1;PMS_P2;Temp;Humidity;BMP_temperature;BMP_pressure;BME280_temperature;BME280_humidity;BME280_pressure;Samples;Min_cycle;Max_cycle;Signal;HPM_P1;HPM_P2
2023/06/03 00:02:06;;;;;;;3.47;2.53;;;24.30;66.00;;;;;;6185015;23;20092;-82
2023/06/03 00:04:32;;;;;;;3.30;2.47;;;24.40;66.10;;;;;;6160201;23;20052;-82
2023/06/03 00:06:58;;;;;;;4.10;2.20;;;24.40;66.10;;;;;;6185887;23;20005;-82
2023/06/03 00:09:23;;;;;;;3.67;2.47;;;24.30;66.10;;;;;;6185556;23;20033;-82
2023/06/03 00:11:49;;;;;;;3.70;2.33;;;24.40;66.20;;;;;;6185346;23;20071;-82
2023/06/03 00:14:15;;;;;;;4.20;2.22;;;24.40;66.30;;;;;;6186633;23;19997;-85
2023/06/03 00:16:45;;;;;;;2.67;2.40;;;24.40;66.50;;;;;;6185639;23;20051;-85
2023/06/03 00:19:14;;;;;;;3.35;2.47;;;24.30;66.20;;;;;;6186948;23;20307;-85
2023/06/03 00:21:49;;;;;;;3.53;2.45;;;24.30;66.50;;;;;;6186363;23;20128;-85
2023/06/03 00:24:15;;;;;;;3.65;2.67;;;24.30;66.40;;;;;;6186522;23;20411;-85
2023/06/03 00:26:41;;;;;;;3.10;2.28;;;24.20;66.70;;;;;;6186406;23;20005;-85
2023/06/03 00:29:07;;;;;;;3.95;2.33;;;24.20;66.80;;;;;;6186850;23;20076;-85
2023/06/03 00:31:33;;;;;;;6.07;2.70;;;24.20;66.80;;;;;;6185977;23;20004;-84
2023/06/03 00:33:58;;;;;;;3.20;2.75;;;24.20;66.80;;;;;;6186453;23;20009;-85
2023/06/03 00:36:24;;;;;;;4.15;2.10;;;24.30;66.80;;;;;;6186029;23;20367;-85
2023/06/03 00:38:50;;;;;;;2.97;2.55;;;24.30;66.80;;;;;;6186544;23;20001;-85
2023/06/03 00:41:16;;;;;;;5.13;2.13;;;24.30;66.80;;;;;;6186512;23;20009;-85
2023/06/03 00:43:42;;;;;;;5.65;2.67;;;24.20;67.00;;;;;;6185979;23;20027;-83
2023/06/03 00:46:10;;;;;;;4.30;2.47;;;24.20;67.10;;;;;;6185638;23;20445;-83
2023/06/03 00:48:37;;;;;;;4.18;2.80;;;24.20;67.70;;;;;;6186489;23;20011;-83
2023/06/03 00:51:03;;;;;;;3.05;2.65;;;24.20;67.90;;;;;;6186385;23;20032;-82
2023/06/03 00:53:29;;;;;;;4.30;3.15;;;24.10;67.90;;;;;;6186527;23;20403;-81
2023/06/03 00:55:55;;;;;;;5.20;2.92;;;24.10;68.40;;;;;;6186223;23;20008;-81
2023/06/03 00:58:21;;;;;;;4.90;2.50;;;24.10;68.40;;;;;;6186044;23;20419;-81
2023/06/03 01:00:48;;;;;;;3.80;2.90;;;24.10;68.60;;;;;;6185636;23;20443;-81
2023/06/03 01:03:15;;;;;;;3.88;2.70;;;24.10;68.60;;;;;;6186057;23;20005;-81
2023/06/03 01:05:45;;;;;;;3.47;2.65;;;24.00;69.00;;;;;;6185438;23;20323;-82
2023/06/03 01:08:20;;;;;;;4.90;2.75;;;24.00;69.20;;;;;;6184808;23;20005;-86
2023/06/03 01:11:20;;;;;;;5.65;3.33;;;24.00;69.60;;;;;;6185368;23;20024;-85
2023/06/03 01:13:55;;;;;;;5.45;3.25;;;24.00;69.80;;;;;;6186106;23;20335;-82
2023/06/03 01:16:23;;;;;;;4.30;3.20;;;24.00;70.20;;;;;;6185841;23;19997;-85
2023/06/03 01:18:50;;;;;;;4.82;3.00;;;23.90;70.10;;;;;;6186039;23;20070;-81
2023/06/03 01:21:16;;;;;;;4.28;2.88;;;23.90;70.40;;;;;;6185468;23;20005;-84
2023/06/03 01:23:44;;;;;;;4.30;2.70;;;23.90;70.40;;;;;;6185009;23;20008;-81
2023/06/03 01:26:11;;;;;;;6.50;3.13;;;24.00;70.50;;;;;;6185047;23;20001;-84
2023/06/03 01:28:38;;;;;;;3.53;2.58;;;24.00;70.70;;;;;;6185257;23;20080;-84
2023/06/03 01:31:05;;;;;;;4.30;3.30;;;24.00;70.90;;;;;;6185065;23;19997;-84
2023/06/03 01:33:32;;;;;;;5.63;3.28;;;24.00;70.80;;;;;;6185227;23;20001;-84
2023/06/03 01:36:00;;;;;;;4.22;2.95;;;24.00;70.90;;;;;;6158630;23;20097;-85
2023/06/03 01:38:26;;;;;;;5.65;3.22;;;23.90;71.00;;;;;;6185719;23;20349;-84
2023/06/03 01:40:52;;;;;;;5.72;2.92;;;23.80;71.10;;;;;;6184594;23;19997;-84
2023/06/03 01:43:18;;;;;;;4.82;3.65;;;23.80;71.30;;;;;;6185607;23;20407;-84
2023/06/03 01:45:45;;;;;;;3.47;2.90;;;23.90;71.60;;;;;;6185615;23;20084;-84
2023/06/03 01:48:11;;;;;;;5.07;3.35;;;23.90;71.70;;;;;;6185614;23;20005;-84
2023/06/03 01:50:44;;;;;;;3.88;3.13;;;23.90;71.80;;;;;;6183796;23;20505;-84
2023/06/03 01:53:10;;;;;;;6.35;3.20;;;23.90;71.60;;;;;;6184593;23;19998;-83
2023/06/03 01:55:36;;;;;;;4.57;3.30;;;23.80;71.60;;;;;;6185387;23;19994;-84
2023/06/03 01:58:03;;;;;;;4.00;2.78;;;23.80;71.70;;;;;;6158971;23;20431;-83
2023/06/03 02:00:28;;;;;;;7.88;3.97;;;23.90;71.70;;;;;;6183815;23;20009;-84
2023/06/03 02:02:54;;;;;;;3.92;3.53;;;23.80;72.50;;;;;;6184669;23;20016;-84
2023/06/03 02:05:20;;;;;;;4.82;3.30;;;23.80;72.10;;;;;;6185284;23;20008;-84
2023/06/03 02:07:46;;;;;;;5.25;3.50;;;23.80;72.10;;;;;;6185305;23;20036;-84
2023/06/03 02:10:11;;;;;;;6.10;3.67;;;23.80;72.20;;;;;;6184623;23;20380;-84
2023/06/03 02:12:37;;;;;;;4.68;3.25;;;23.80;72.30;;;;;;6158199;23;20009;-84
2023/06/03 02:15:03;;;;;;;6.22;3.53;;;23.90;72.40;;;;;;6184844;23;19997;-84
2023/06/03 02:17:29;;;;;;;4.95;3.50;;;23.80;72.60;;;;;;6184862;23;20399;-84
2023/06/03 02:19:56;;;;;;;9.88;4.78;;;23.80;72.50;;;;;;6185196;23;20017;-84
2023/06/03 02:22:22;;;;;;;6.68;4.45;;;23.80;73.20;;;;;;6185364;23;20008;-84
2023/06/03 02:24:49;;;;;;;8.30;4.35;;;23.60;74.00;;;;;;6185484;23;20016;-84
2023/06/03 02:27:19;;;;;;;5.70;3.80;;;23.50;74.10;;;;;;6184771;23;20004;-84
2023/06/03 02:29:50;;;;;;;6.47;4.22;;;23.30;74.40;;;;;;6184815;23;20001;-83
2023/06/03 02:32:16;;;;;;;3.70;3.15;;;23.20;75.00;;;;;;6185180;23;20032;-83
2023/06/03 02:34:46;;;;;;;6.80;4.40;;;23.20;75.00;;;;;;6185346;23;20547;-83
2023/06/03 02:37:13;;;;;;;5.35;4.57;;;23.10;75.60;;;;;;6185527;23;20073;-84
2023/06/03 02:39:38;;;;;;;5.45;3.78;;;23.00;75.70;;;;;;6186417;23;20001;-83
2023/06/03 02:42:05;;;;;;;5.70;4.20;;;23.00;76.10;;;;;;6186820;23;20005;-83
2023/06/03 02:44:31;;;;;;;6.03;4.00;;;22.90;76.20;;;;;;6187171;23;20001;-84
2023/06/03 02:46:56;;;;;;;8.30;3.35;;;23.00;76.10;;;;;;6187146;23;20012;-84
2023/06/03 02:49:22;;;;;;;4.28;3.05;;;23.00;75.40;;;;;;6186991;23;20005;-84
2023/06/03 02:51:47;;;;;;;6.60;3.63;;;23.10;75.10;;;;;;6186592;23;20001;-84
2023/06/03 02:54:13;;;;;;;4.35;2.70;;;23.10;74.90;;;;;;6187046;23;20007;-84
2023/06/03 02:56:39;;;;;;;4.90;3.17;;;23.20;74.70;;;;;;6187324;23;20004;-85
2023/06/03 02:59:07;;;;;;;3.42;2.80;;;23.20;74.50;;;;;;6187360;23;20080;-85
2023/06/03 03:01:33;;;;;;;3.58;2.83;;;23.20;74.30;;;;;;6186386;23;20036;-85
2023/06/03 03:03:59;;;;;;;3.83;3.03;;;23.10;74.30;;;;;;6187038;23;20403;-85
2023/06/03 03:06:25;;;;;;;8.40;3.95;;;23.20;74.30;;;;;;6189735;23;20001;-85
2023/06/03 03:08:54;;;;;;;3.92;2.83;;;23.00;74.70;;;;;;6188864;23;20016;-84
2023/06/03 03:11:20;;;;;;;6.15;3.78;;;23.00;74.50;;;;;;6186667;23;20094;-84
2023/06/03 03:13:46;;;;;;;5.07;2.70;;;22.90;74.60;;;;;;6186755;23;20005;-83
2023/06/03 03:16:13;;;;;;;3.00;2.65;;;22.90;75.30;;;;;;6186558;23;20010;-82
2023/06/03 03:18:39;;;;;;;4.45;3.15;;;22.90;74.60;;;;;;6186985;23;20056;-83
2023/06/03 03:21:05;;;;;;;4.32;3.30;;;22.90;74.60;;;;;;6185260;23;20001;-84
2023/06/03 03:23:31;;;;;;;3.83;2.63;;;22.90;74.70;;;;;;6159061;23;20019;-84
2023/06/03 03:25:58;;;;;;;4.20;3.17;;;22.90;74.40;;;;;;6186428;23;20001;-83
2023/06/03 03:28:24;;;;;;;5.57;3.30;;;22.80;74.70;;;;;;6186581;23;20008;-83
2023/06/03 03:30:50;;;;;;;2.80;2.05;;;22.70;74.80;;;;;;6160854;23;20005;-83
2023/06/03 03:33:20;;;;;;;4.20;2.58;;;22.80;74.50;;;;;;6187020;23;20389;-83
2023/06/03 03:35:48;;;;;;;3.10;2.45;;;22.80;74.50;;;;;;6186825;23;20021;-84
2023/06/03 03:38:15;;;;;;;3.28;2.40;;;22.90;74.50;;;;;;6186482;23;20008;-83
2023/06/03 03:40:40;;;;;;;3.63;2.70;;;22.90;74.30;;;;;;6185858;23;20120;-84
2023/06/03 03:43:17;;;;;;;2.97;2.33;;;22.90;74.00;;;;;;6185633;23;20041;-84
2023/06/03 03:45:43;;;;;;;4.15;2.60;;;23.00;74.00;;;;;;6184402;23;20028;-83
2023/06/03 03:48:14;;;;;;;3.92;2.50;;;23.00;74.00;;;;;;6184856;23;20001;-83
2023/06/03 03:50:42;;;;;;;5.10;2.70;;;23.10;73.80;;;;;;6186165;23;20005;-83
2023/06/03 03:53:23;;;;;;;4.03;2.30;;;23.00;73.50;;;;;;6186693;23;20000;-83
2023/06/03 03:55:52;;;;;;;3.13;2.60;;;23.00;73.40;;;;;;6186724;23;19997;-83
2023/06/03 03:58:25;;;;;;;4.18;2.47;;;23.00;73.60;;;;;;6185234;23;20005;-83
2023/06/03 04:00:51;;;;;;;3.05;2.28;;;23.00;73.60;;;;;;6185899;23;20017;-85
2023/06/03 04:03:19;;;;;;;2.47;1.88;;;23.00;73.60;;;;;;6160443;23;20305;-84
2023/06/03 04:05:47;;;;;;;4.13;2.33;;;23.00;73.30;;;;;;6160540;23;20009;-85
2023/06/03 04:08:29;;;;;;;2.35;2.03;;;23.00;73.20;;;;;;6186381;23;20016;-85
2023/06/03 04:11:00;;;;;;;3.58;2.25;;;23.00;73.10;;;;;;6186423;23;20075;-84
2023/06/03 04:13:26;;;;;;;5.00;2.50;;;23.00;73.00;;;;;;6186309;23;20019;-84
2023/06/03 04:15:52;;;;;;;2.95;2.30;;;23.00;72.90;;;;;;6186331;23;20079;-84
2023/06/03 04:18:20;;;;;;;4.53;2.33;;;23.10;72.80;;;;;;6159568;23;20009;-84
2023/06/03 04:20:48;;;;;;;2.17;1.90;;;23.20;72.90;;;;;;6186212;23;20080;-84
2023/06/03 04:23:16;;;;;;;4.57;2.50;;;23.10;72.60;;;;;;6186718;23;20005;-84
2023/06/03 04:25:43;;;;;;;3.00;2.10;;;23.10;73.10;;;;;;6186782;23;20308;-83
2023/06/03 04:28:12;;;;;;;2.55;2.05;;;23.10;72.40;;;;;;6184932;23;20008;-83
2023/06/03 04:30:37;;;;;;;3.22;2.00;;;23.10;72.30;;;;;;6185687;23;20028;-83
2023/06/03 04:33:03;;;;;;;3.42;2.60;;;23.10;72.30;;;;;;6185641;23;20067;-83
2023/06/03 04:35:29;;;;;;;2.05;1.80;;;23.10;72.30;;;;;;6186165;23;20043;-83
2023/06/03 04:37:57;;;;;;;2.88;2.17;;;23.20;72.10;;;;;;6185232;23;20001;-83
2023/06/03 04:40:22;;;;;;;3.88;2.28;;;23.20;71.70;;;;;;6184770;23;20005;-83
2023/06/03 04:42:49;;;;;;;3.50;1.92;;;23.20;71.50;;;;;;6185972;23;20024;-83
2023/06/03 04:45:15;;;;;;;1.70;1.60;;;23.20;71.90;;;;;;6186237;23;20419;-83
2023/06/03 04:47:44;;;;;;;2.75;2.03;;;23.20;71.30;;;;;;6185422;23;20036;-84
2023/06/03 04:50:10;;;;;;;2.60;2.00;;;23.30;71.40;;;;;;6185913;23;20001;-83
2023/06/03 04:52:35;;;;;;;2.45;2.00;;;23.30;71.30;;;;;;6185878;23;20426;-83
2023/06/03 04:55:02;;;;;;;2.25;1.70;;;23.30;71.00;;;;;;6186109;23;20386;-83
2023/06/03 04:57:28;;;;;;;3.60;2.00;;;23.30;70.80;;;;;;6185915;23;20001;-82
2023/06/03 04:59:54;;;;;;;2.70;1.67;;;23.30;70.60;;;;;;6186247;23;20008;-82
2023/06/03 05:02:23;;;;;;;2.42;2.17;;;23.30;70.60;;;;;;6185358;23;20435;-84
2023/06/03 05:04:49;;;;;;;4.18;2.50;;;23.30;70.30;;;;;;6186240;23;20336;-84
2023/06/03 05:07:15;;;;;;;2.60;1.83;;;23.30;70.70;;;;;;6185664;23;20626;-84
2023/06/03 05:09:41;;;;;;;4.63;2.30;;;23.30;70.50;;;;;;6185441;23;20006;-82
2023/06/03 05:12:07;;;;;;;3.60;2.40;;;23.20;70.40;;;;;;6186001;23;20350;-82
2023/06/03 05:14:33;;;;;;;2.33;1.92;;;23.20;70.40;;;;;;6185845;23;20299;-83
2023/06/03 05:16:59;;;;;;;2.75;2.03;;;23.30;70.50;;;;;;6186199;23;20007;-83
2023/06/03 05:19:24;;;;;;;3.10;2.47;;;23.20;70.10;;;;;;6186159;23;20005;-83
2023/06/03 05:21:50;;;;;;;3.80;2.53;;;23.20;69.80;;;;;;6184344;23;20307;-83
2023/06/03 05:24:16;;;;;;;3.67;2.63;;;23.20;70.30;;;;;;6186078;23;20012;-83
2023/06/03 05:26:41;;;;;;;2.42;1.65;;;23.20;69.80;;;;;;6185661;23;20109;-83
2023/06/03 05:29:07;;;;;;;2.15;1.95;;;23.20;69.90;;;;;;6184890;23;20082;-82
2023/06/03 05:31:32;;;;;;;2.63;2.05;;;23.30;69.80;;;;;;6185895;23;20011;-84
2023/06/03 05:33:58;;;;;;;2.28;2.08;;;23.40;69.70;;;;;;6186062;23;19997;-84
2023/06/03 05:36:26;;;;;;;2.35;2.00;;;23.40;69.70;;;;;;6185642;23;20030;-83
2023/06/03 05:38:52;;;;;;;4.18;2.08;;;23.50;69.40;;;;;;6183433;23;20016;-84
2023/06/03 05:41:17;;;;;;;3.25;1.85;;;23.60;69.30;;;;;;6184268;23;20005;-81
2023/06/03 05:43:43;;;;;;;3.28;1.90;;;23.70;69.30;;;;;;6157586;23;21191;-81
2023/06/03 05:46:09;;;;;;;4.25;2.42;;;23.80;69.30;;;;;;6184515;23;20136;-81
2023/06/03 05:48:34;;;;;;;2.85;1.70;;;23.80;68.60;;;;;;6185119;23;20012;-81
2023/06/03 05:51:00;;;;;;;3.22;2.15;;;23.90;68.40;;;;;;6183756;23;20001;-81
2023/06/03 05:53:26;;;;;;;3.70;1.90;;;23.90;67.90;;;;;;6184875;23;20028;-81
2023/06/03 05:55:53;;;;;;;2.15;1.73;;;23.90;68.20;;;;;;6185974;23;20004;-81
2023/06/03 05:58:19;;;;;;;9.88;1.95;;;24.00;68.30;;;;;;6185501;23;20004;-81
2023/06/03 06:00:45;;;;;;;2.22;1.80;;;24.10;67.20;;;;;;6182572;23;20018;-81
2023/06/03 06:03:13;;;;;;;6.15;2.85;;;24.10;67.20;;;;;;6183597;23;20009;-81
2023/06/03 06:05:39;;;;;;;2.88;1.85;;;24.10;66.80;;;;;;6183905;23;20005;-80
2023/06/03 06:08:05;;;;;;;3.70;1.88;;;24.10;67.00;;;;;;6184199;23;20009;-80
2023/06/03 06:10:31;;;;;;;1.92;1.50;;;24.20;66.90;;;;;;6184886;23;19997;-80
2023/06/03 06:12:57;;;;;;;2.63;1.45;;;24.30;66.80;;;;;;6183807;23;20001;-80
2023/06/03 06:15:22;;;;;;;3.28;1.88;;;24.40;67.00;;;;;;6184116;23;20005;-79
2023/06/03 06:17:48;;;;;;;2.33;1.48;;;24.40;66.80;;;;;;6184666;23;20009;-80
2023/06/03 06:20:14;;;;;;;3.55;1.80;;;24.40;66.40;;;;;;6158674;23;20738;-81
2023/06/03 06:22:40;;;;;;;2.72;1.70;;;24.50;65.90;;;;;;6184779;23;20399;-82
2023/06/03 06:25:08;;;;;;;1.98;1.65;;;24.50;66.00;;;;;;6185630;23;20056;-83
2023/06/03 06:27:34;;;;;;;2.97;1.80;;;24.60;66.00;;;;;;6158917;23;20009;-85
2023/06/03 06:30:00;;;;;;;4.10;1.88;;;24.60;65.70;;;;;;6185241;23;20024;-82
2023/06/03 06:32:26;;;;;;;2.65;1.60;;;24.60;65.60;;;;;;6181424;23;20072;-82
2023/06/03 06:34:53;;;;;;;2.80;1.50;;;24.70;65.50;;;;;;6184686;23;20001;-87
2023/06/03 06:37:19;;;;;;;3.28;2.20;;;24.80;65.30;;;;;;6183896;23;20363;-83
2023/06/03 06:39:55;;;;;;;3.90;1.63;;;24.80;64.80;;;;;;6184504;23;20008;-83
2023/06/03 06:42:33;;;;;;;3.15;1.83;;;24.80;64.80;;;;;;6184772;23;20326;-82
2023/06/03 06:45:10;;;;;;;5.97;1.45;;;24.90;64.90;;;;;;6184763;23;20001;-82
2023/06/03 06:47:37;;;;;;;2.20;1.85;;;24.90;65.10;;;;;;6184908;23;20427;-82
2023/06/03 06:50:07;;;;;;;2.53;1.70;;;25.00;64.30;;;;;;6185024;23;20001;-82
2023/06/03 06:52:34;;;;;;;1.98;1.70;;;25.00;63.80;;;;;;6184648;23;20477;-82
2023/06/03 06:55:01;;;;;;;3.10;1.90;;;25.00;63.80;;;;;;6182781;23;19997;-82
2023/06/03 06:57:28;;;;;;;2.30;1.60;;;25.00;63.60;;;;;;6184991;23;20001;-82
2023/06/03 06:59:54;;;;;;;1.70;1.50;;;25.10;63.90;;;;;;6185384;23;20004;-82
2023/06/03 07:02:21;;;;;;;1.98;1.60;;;25.20;63.50;;;;;;6183901;23;20016;-82
2023/06/03 07:04:50;;;;;;;2.67;1.60;;;25.20;63.50;;;;;;6158887;23;20075;-81
2023/06/03 07:07:16;;;;;;;2.78;1.60;;;25.20;62.80;;;;;;6184838;23;20004;-82
2023/06/03 07:09:42;;;;;;;3.22;2.25;;;25.30;62.80;;;;;;6185608;23;20009;-81
2023/06/03 07:12:09;;;;;;;3.10;1.80;;;25.30;62.90;;;;;;6184735;23;20066;-81
2023/06/03 07:14:35;;;;;;;1.52;1.40;;;25.30;63.20;;;;;;6185257;23;20001;-81
2023/06/03 07:17:01;;;;;;;1.52;1.42;;;25.20;63.30;;;;;;6184607;23;20024;-82
2023/06/03 07:19:37;;;;;;;2.83;1.50;;;25.20;63.30;;;;;;6184523;23;20427;-81
2023/06/03 07:22:05;;;;;;;1.50;1.40;;;25.30;63.20;;;;;;6184414;23;20075;-82
2023/06/03 07:24:36;;;;;;;1.50;1.40;;;25.30;63.50;;;;;;6185685;23;20350;-82
2023/06/03 07:27:06;;;;;;;3.03;1.70;;;25.30;63.40;;;;;;6186737;23;20001;-81
2023/06/03 07:29:38;;;;;;;2.28;1.85;;;25.30;63.50;;;;;;6186812;23;20005;-81
2023/06/03 07:32:07;;;;;;;2.03;1.58;;;25.30;63.00;;;;;;6186780;23;20008;-82
2023/06/03 07:34:34;;;;;;;1.92;1.67;;;25.40;63.20;;;;;;6186936;23;20001;-81
2023/06/03 07:37:03;;;;;;;3.00;2.20;;;25.40;63.50;;;;;;6184651;23;20063;-82
2023/06/03 07:39:28;;;;;;;2.72;1.70;;;25.50;63.00;;;;;;6186157;23;20076;-81
2023/06/03 07:41:54;;;;;;;1.90;1.27;;;25.50;63.20;;;;;;6184960;23;20390;-82
2023/06/03 07:44:45;;;;;;;1.77;1.50;;;25.50;62.50;;;;;;6185077;23;20028;-82
2023/06/03 07:47:16;;;;;;;1.98;1.38;;;25.50;61.40;;;;;;6185222;23;20015;-82
2023/06/03 07:49:46;;;;;;;2.60;1.55;;;25.40;62.40;;;;;;6185803;23;20008;-82
2023/06/03 07:52:20;;;;;;;2.03;1.63;;;25.60;62.50;;;;;;6184880;23;20023;-82
2023/06/03 07:54:45;;;;;;;4.22;1.50;;;25.60;62.70;;;;;;6159309;23;20500;-82
2023/06/03 07:57:13;;;;;;;2.83;1.95;;;25.70;62.40;;;;;;6185695;23;20089;-82
2023/06/03 07:59:49;;;;;;;2.15;1.77;;;25.80;61.60;;;;;;6185839;23;20474;-82
2023/06/03 08:02:15;;;;;;;2.15;1.55;;;25.90;60.90;;;;;;6185421;23;20091;-82
2023/06/03 08:04:41;;;;;;;2.30;1.83;;;25.90;61.00;;;;;;6184843;23;20001;-82
2023/06/03 08:07:07;;;;;;;1.88;1.67;;;25.90;60.80;;;;;;6159306;23;20013;-82
2023/06/03 08:09:35;;;;;;;2.00;1.80;;;25.90;60.80;;;;;;6185788;23;20112;-83
2023/06/03 08:12:04;;;;;;;3.97;1.70;;;26.00;61.20;;;;;;6185027;23;20037;-82
2023/06/03 08:14:32;;;;;;;1.90;1.50;;;26.10;61.60;;;;;;6185649;23;19997;-82
2023/06/03 08:17:07;;;;;;;2.22;1.90;;;26.10;61.40;;;;;;6185115;23;20412;-82
2023/06/03 08:19:34;;;;;;;2.38;1.77;;;26.20;61.20;;;;;;6185398;23;20012;-82
2023/06/03 08:22:00;;;;;;;1.58;1.42;;;26.20;60.90;;;;;;6185180;23;20351;-83
2023/06/03 08:24:26;;;;;;;1.65;1.55;;;26.20;61.10;;;;;;6185625;23;20008;-82
2023/06/03 08:26:51;;;;;;;2.30;1.67;;;26.30;61.20;;;;;;6185463;23;20013;-83
2023/06/03 08:29:17;;;;;;;5.65;1.60;;;26.40;61.40;;;;;;6185286;23;20025;-82
2023/06/03 08:31:43;;;;;;;3.75;1.77;;;26.50;61.40;;;;;;6183697;23;20004;-81
2023/06/03 08:34:08;;;;;;;2.05;1.67;;;26.50;60.60;;;;;;6185842;23;19998;-83
2023/06/03 08:36:36;;;;;;;2.17;1.35;;;26.60;61.00;;;;;;6184457;23;20011;-83
2023/06/03 08:39:02;;;;;;;4.05;2.13;;;26.60;61.20;;;;;;6183489;23;20378;-84
2023/06/03 08:41:38;;;;;;;2.45;1.48;;;26.70;61.00;;;;;;6185138;23;20060;-83
2023/06/03 08:44:13;;;;;;;2.95;2.15;;;26.80;61.70;;;;;;6185506;23;20059;-82
2023/06/03 08:47:11;;;;;;;2.58;1.77;;;26.80;59.50;;;;;;6185355;23;20059;-82
2023/06/03 08:49:46;;;;;;;5.93;2.10;;;26.80;60.00;;;;;;6178699;23;20044;-82
2023/06/03 08:52:11;;;;;;;4.47;2.00;;;26.80;58.50;;;;;;6185627;23;20133;-82
2023/06/03 08:54:40;;;;;;;2.70;1.50;;;26.80;60.00;;;;;;6185538;23;20418;-82
2023/06/03 08:57:11;;;;;;;2.65;1.85;;;26.90;60.50;;;;;;6185406;23;20407;-82
2023/06/03 08:59:40;;;;;;;1.50;1.40;;;27.00;60.00;;;;;;6185056;23;20009;-82
2023/06/03 09:02:08;;;;;;;2.10;1.77;;;27.10;60.30;;;;;;6185446;23;20032;-81
2023/06/03 09:04:35;;;;;;;3.05;2.30;;;27.20;59.10;;;;;;6185959;23;20008;-81
2023/06/03 09:07:03;;;;;;;3.50;2.17;;;27.20;58.90;;;;;;6185463;23;20404;-82
2023/06/03 09:09:30;;;;;;;3.42;2.17;;;27.20;58.60;;;;;;6185262;23;20369;-82
2023/06/03 09:11:57;;;;;;;2.40;1.70;;;27.20;58.20;;;;;;6185163;23;20001;-82
2023/06/03 09:14:24;;;;;;;2.17;1.98;;;27.10;58.50;;;;;;6185750;23;20012;-81
2023/06/03 09:16:52;;;;;;;7.20;2.03;;;27.20;59.10;;;;;;6184803;23;20419;-80
2023/06/03 09:19:19;;;;;;;2.88;2.33;;;27.20;59.30;;;;;;6185225;23;20008;-80
2023/06/03 09:21:46;;;;;;;4.28;2.10;;;27.30;59.60;;;;;;6185405;23;20033;-80
2023/06/03 09:24:12;;;;;;;3.60;2.10;;;27.40;59.80;;;;;;6185593;23;20419;-79
2023/06/03 09:26:39;;;;;;;5.07;2.35;;;27.50;60.30;;;;;;6180919;23;20311;-80
2023/06/03 09:29:06;;;;;;;3.83;2.35;;;27.60;60.10;;;;;;6185127;23;20067;-79
2023/06/03 09:31:32;;;;;;;3.58;2.30;;;27.70;60.70;;;;;;6184500;23;20362;-80
2023/06/03 09:33:58;;;;;;;2.90;2.00;;;27.80;60.20;;;;;;6185406;23;20076;-81
2023/06/03 09:36:26;;;;;;;3.55;1.85;;;27.90;60.10;;;;;;6157991;23;20009;-80
2023/06/03 09:38:54;;;;;;;2.40;2.03;;;27.90;59.60;;;;;;6185375;23;20005;-80
2023/06/03 09:41:22;;;;;;;4.45;2.60;;;28.00;59.50;;;;;;6184078;23;20015;-81
2023/06/03 09:43:54;;;;;;;2.30;1.77;;;28.00;59.20;;;;;;6184553;23;20326;-81
2023/06/03 09:46:20;;;;;;;2.63;1.98;;;28.20;59.20;;;;;;6184203;23;20004;-81
2023/06/03 09:48:46;;;;;;;3.47;2.10;;;28.20;59.30;;;;;;6184913;23;20001;-81
2023/06/03 09:51:12;;;;;;;5.22;3.58;;;28.30;58.70;;;;;;6184524;23;20036;-82
2023/06/03 09:53:37;;;;;;;2.50;2.30;;;28.30;58.70;;;;;;6184330;23;19998;-82
2023/06/03 09:56:26;;;;;;;2.10;1.90;;;28.40;58.60;;;;;;6183355;23;20068;-82
2023/06/03 09:59:12;;;;;;;2.05;1.80;;;28.50;58.40;;;;;;6184831;23;20005;-82
2023/06/03 10:01:38;;;;;;;7.53;2.88;;;28.50;58.30;;;;;;6183838;23;20355;-81
2023/06/03 10:04:03;;;;;;;2.60;2.00;;;28.50;57.90;;;;;;6184842;23;20008;-82
2023/06/03 10:06:30;;;;;;;2.60;2.15;;;28.60;57.30;;;;;;6184490;23;20304;-82
2023/06/03 10:08:55;;;;;;;3.53;2.50;;;28.60;57.70;;;;;;6185117;23;20096;-82
2023/06/03 10:11:23;;;;;;;3.08;1.85;;;28.60;57.30;;;;;;6184318;23;20028;-81
2023/06/03 10:14:02;;;;;;;2.60;2.38;;;28.70;57.80;;;;;;6182897;23;20315;-80
2023/06/03 10:16:28;;;;;;;2.97;2.27;;;28.80;57.60;;;;;;6183565;23;20001;-80
2023/06/03 10:18:54;;;;;;;4.75;2.70;;;28.90;56.60;;;;;;6184318;23;20228;-80
2023/06/03 10:21:21;;;;;;;3.92;2.50;;;29.00;58.00;;;;;;6184427;23;20036;-84
2023/06/03 10:23:48;;;;;;;3.20;2.28;;;29.00;58.00;;;;;;6184747;23;20453;-84
2023/06/03 10:26:16;;;;;;;4.10;2.20;;;29.10;58.20;;;;;;6184682;23;20016;-83
2023/06/03 10:28:45;;;;;;;4.38;2.17;;;29.20;57.80;;;;;;6185376;23;20013;-84
2023/06/03 10:31:12;;;;;;;4.85;2.55;;;29.40;57.50;;;;;;6186215;23;20415;-94
2023/06/03 10:33:39;;;;;;;2.80;2.30;;;29.50;56.70;;;;;;6163065;23;20008;-83
2023/06/03 10:36:06;;;;;;;3.28;2.20;;;29.50;56.40;;;;;;6185396;23;20015;-84
2023/06/03 10:38:32;;;;;;;2.83;2.35;;;29.60;56.60;;;;;;6183529;23;20001;-84
2023/06/03 10:41:00;;;;;;;3.70;2.72;;;29.60;56.70;;;;;;6185336;23;20005;-84
2023/06/03 10:43:29;;;;;;;3.03;2.65;;;29.80;55.60;;;;;;6183141;23;20017;-85
2023/06/03 10:45:57;;;;;;;2.85;2.28;;;29.80;56.10;;;;;;6156815;23;20009;-83
2023/06/03 10:48:25;;;;;;;3.97;2.67;;;29.90;56.70;;;;;;6183477;23;20013;-83
2023/06/03 10:51:14;;;;;;;3.80;2.40;;;30.00;56.30;;;;;;6184858;23;20012;-84
2023/06/03 10:53:48;;;;;;;2.90;2.40;;;30.20;55.80;;;;;;6184656;23;20526;-85
2023/06/03 10:56:36;;;;;;;4.20;2.50;;;30.20;55.60;;;;;;6158173;23;20378;-85
2023/06/03 10:59:09;;;;;;;3.20;2.53;;;30.30;55.90;;;;;;6184116;23;20005;-85
2023/06/03 11:02:02;;;;;;;2.90;2.55;;;30.30;56.20;;;;;;6186419;23;20047;-84
2023/06/03 11:04:31;;;;;;;2.97;2.67;;;30.40;56.40;;;;;;6186520;23;20055;-84
2023/06/03 11:06:57;;;;;;;3.28;2.70;;;30.50;56.50;;;;;;6185294;23;20013;-84
2023/06/03 11:09:32;;;;;;;3.75;2.60;;;30.50;56.70;;;;;;6184555;23;20009;-84
2023/06/03 11:12:03;;;;;;;4.60;2.70;;;30.70;56.90;;;;;;6185624;23;20427;-84
2023/06/03 11:14:29;;;;;;;4.03;2.85;;;30.70;56.70;;;;;;6186236;23;20001;-85
2023/06/03 11:16:58;;;;;;;3.40;2.78;;;30.80;57.10;;;;;;6186136;23;20364;-85
2023/06/03 11:19:31;;;;;;;6.63;3.20;;;31.00;57.70;;;;;;6182867;23;20005;-84
2023/06/03 11:21:57;;;;;;;3.28;2.45;;;31.10;57.40;;;;;;6157643;23;20121;-84
2023/06/03 11:24:38;;;;;;;4.82;2.80;;;31.30;57.60;;;;;;6184902;23;20005;-84
2023/06/03 11:27:10;;;;;;;4.05;2.53;;;31.60;56.60;;;;;;6182918;23;20047;-82
2023/06/03 11:32:20;;;;;;;2.75;2.30;;;32.10;55.00;;;;;;6184547;23;20087;-82
2023/06/03 11:34:48;;;;;;;2.97;2.45;;;32.40;55.70;;;;;;6159086;23;20005;-82
2023/06/03 11:37:19;;;;;;;3.75;2.63;;;32.70;55.60;;;;;;6184484;23;20036;-82
2023/06/03 11:40:19;;;;;;;3.88;2.70;;;33.10;54.40;;;;;;6158455;23;20084;-82
2023/06/03 11:42:51;;;;;;;3.35;2.83;;;33.50;53.70;;;;;;6110821;23;20021;-82
2023/06/03 11:45:20;;;;;;;3.80;2.92;;;33.70;52.80;;;;;;6183341;23;20012;-82
2023/06/03 11:47:55;;;;;;;3.00;2.63;;;33.80;52.40;;;;;;6183722;23;20012;-82
2023/06/03 11:50:23;;;;;;;3.55;2.50;;;33.90;51.80;;;;;;6185481;23;19997;-82
2023/06/03 11:52:49;;;;;;;2.88;2.60;;;34.10;51.80;;;;;;6183889;23;20350;-82
2023/06/03 11:55:26;;;;;;;3.28;2.13;;;34.20;51.30;;;;;;6185035;23;19997;-82
2023/06/03 11:57:54;;;;;;;2.75;2.33;;;34.30;51.90;;;;;;6184791;23;19997;-83
2023/06/03 12:00:21;;;;;;;3.05;2.40;;;34.50;51.30;;;;;;6184824;23;20007;-83
2023/06/03 12:02:47;;;;;;;7.00;2.50;;;34.60;51.70;;;;;;6185441;23;20005;-82
2023/06/03 12:05:16;;;;;;;4.03;2.72;;;34.70;51.20;;;;;;6185343;23;20009;-82
2023/06/03 12:07:54;;;;;;;6.22;3.00;;;34.80;50.50;;;;;;6185552;23;20005;-82
2023/06/03 12:10:20;;;;;;;4.88;2.50;;;34.80;50.00;;;;;;6184966;23;20071;-83
2023/06/03 12:12:54;;;;;;;2.55;2.28;;;34.80;49.80;;;;;;6184017;23;20420;-79
2023/06/03 12:15:20;;;;;;;3.28;2.47;;;35.00;50.10;;;;;;6185149;23;20013;-80
2023/06/03 12:17:47;;;;;;;3.75;2.63;;;35.00;48.60;;;;;;6184099;23;20005;-79
2023/06/03 12:20:27;;;;;;;4.13;2.55;;;35.10;48.80;;;;;;6158697;23;20139;-79
2023/06/03 12:23:02;;;;;;;;;;;35.10;48.70;;;;;;6185194;23;20355;-79
2023/06/03 12:25:28;;;;;;;12.85;2.97;;;35.10;47.40;;;;;;6184513;23;19908;-81
2023/06/03 12:27:54;;;;;;;6.97;2.85;;;35.10;48.00;;;;;;6185196;23;20328;-82
2023/06/03 12:30:33;;;;;;;2.78;2.30;;;35.00;47.60;;;;;;6186124;23;20004;-82
2023/06/03 12:33:00;;;;;;;3.65;2.60;;;35.00;48.10;;;;;;6185053;23;20006;-82
2023/06/03 12:35:27;;;;;;;3.05;2.55;;;35.00;47.50;;;;;;6186156;23;20001;-82
2023/06/03 12:38:06;;;;;;;3.78;2.53;;;35.10;47.50;;;;;;6185929;23;20008;-82
2023/06/03 12:40:32;;;;;;;2.65;2.40;;;35.30;47.20;;;;;;6183775;23;20422;-82
2023/06/03 12:42:59;;;;;;;3.83;2.58;;;35.30;47.10;;;;;;6157718;23;20340;-82
2023/06/03 12:45:25;;;;;;;3.80;3.28;;;35.40;46.90;;;;;;6185641;23;20036;-82
2023/06/03 12:47:52;;;;;;;2.55;2.17;;;35.40;46.60;;;;;;6160234;23;20008;-81
2023/06/03 12:50:20;;;;;;;2.80;2.30;;;35.50;46.90;;;;;;6185972;23;20005;-81
2023/06/03 12:52:47;;;;;;;3.30;2.55;;;35.50;46.50;;;;;;6186200;23;20009;-81
2023/06/03 12:55:17;;;;;;;5.07;2.60;;;35.50;46.50;;;;;;6186123;23;20001;-81
2023/06/03 12:57:48;;;;;;;3.33;2.58;;;35.50;46.00;;;;;;6186057;23;20004;-81